sensor_id;sensor_type;location;lat;lon;timestamp;pressure;altitude;pressure_sealevel;temperature;humidity
43707;BME280;61348;53.392;-6.248;2024-03-02T00:00:22;98465.38;;;2.75;100.00
43707;BME280;61348;53.392;-6.248;2024-03-02T00:02:49;98455.59;;;2.74;100.00
43707;BME280;61348;53.392;-6.248;2024-03-02T00:05:22;98458.66;;;2.73;100.00
43707;BME280;61348;53.392;-6.248;2024-03-02T00:07:57;98462.09;;;2.70;100.00
43707;BME280;61348;53.392;-6.248;2024-03-02T00:10:26;98459.25;;;2.66;100.00
43707;BME280;61348;53.392;-6.248;2024-03-02T00:12:58;98458.81;;;2.64;100.00
43707;BME280;61348;53.392;-6.248;2024-03-02T00:18:13;98467.59;;;2.58;100.00
43707;BME280;61348;53.392;-6.248;2024-03-02T00:20:41;98475.00;;;2.57;100.00
43707;BME280;61348;53.392;-6.248;2024-03-02T00:23:10;98463.19;;;2.53;100.00
43707;BME280;61348;53.392;-6.248;2024-03-02T00:25:44;98474.81;;;2.50;100.00
43707;BME280;61348;53.392;-6.248;2024-03-02T00:28:17;98478.22;;;2.47;100.00
43707;BME280;61348;53.392;-6.248;2024-03-02T00:30:57;98477.78;;;2.45;100.00
43707;BME280;61348;53.392;-6.248;2024-03-02T00:33:30;98480.06;;;2.43;100.00
43707;BME280;61348;53.392;-6.248;2024-03-02T00:36:00;98478.84;;;2.40;100.00
43707;BME280;61348;53.392;-6.248;2024-03-02T00:38:29;98482.25;;;2.37;100.00
43707;BME280;61348;53.392;-6.248;2024-03-02T00:40:58;98488.84;;;2.36;100.00
43707;BME280;61348;53.392;-6.248;2024-03-02T00:46:05;98474.19;;;2.29;100.00
43707;BME280;61348;53.392;-6.248;2024-03-02T00:48:33;98478.84;;;2.28;100.00
43707;BME280;61348;53.392;-6.248;2024-03-02T00:51:04;98491.25;;;2.26;100.00
43707;BME280;61348;53.392;-6.248;2024-03-02T00:53:31;98486.16;;;2.24;100.00
43707;BME280;61348;53.392;-6.248;2024-03-02T00:56:02;98479.09;;;2.23;100.00
43707;BME280;61348;53.392;-6.248;2024-03-02T00:58:30;98484.22;;;2.25;100.00
43707;BME280;61348;53.392;-6.248;2024-03-02T01:00:57;98478.78;;;2.25;100.00
43707;BME280;61348;53.392;-6.248;2024-03-02T01:03:24;98483.50;;;2.28;100.00
43707;BME280;61348;53.392;-6.248;2024-03-02T01:05:52;98482.75;;;2.27;100.00
43707;BME280;61348;53.392;-6.248;2024-03-02T01:08:19;98488.53;;;2.26;100.00
43707;BME280;61348;53.392;-6.248;2024-03-02T01:10:47;98488.53;;;2.26;100.00
43707;BME280;61348;53.392;-6.248;2024-03-02T01:13:14;98488.97;;;2.28;100.00
43707;BME280;61348;53.392;-6.248;2024-03-02T01:15:41;98493.31;;;2.29;100.00
43707;BME280;61348;53.392;-6.248;2024-03-02T01:18:09;98480.44;;;2.29;100.00
43707;BME280;61348;53.392;-6.248;2024-03-02T01:20:36;98488.28;;;2.31;100.00
43707;BME280;61348;53.392;-6.248;2024-03-02T01:23:03;98482.81;;;2.31;100.00
43707;BME280;61348;53.392;-6.248;2024-03-02T01:25:31;98492.63;;;2.32;100.00
43707;BME280;61348;53.392;-6.248;2024-03-02T01:27:58;98492.16;;;2.30;100.00
43707;BME280;61348;53.392;-6.248;2024-03-02T01:30:25;98482.75;;;2.27;100.00
43707;BME280;61348;53.392;-6.248;2024-03-02T01:32:53;98484.22;;;2.25;100.00
43707;BME280;61348;53.392;-6.248;2024-03-02T01:35:20;98493.53;;;2.24;100.00
43707;BME280;61348;53.392;-6.248;2024-03-02T01:37:48;98487.63;;;2.22;100.00
43707;BME280;61348;53.392;-6.248;2024-03-02T01:40:15;98484.69;;;2.15;100.00
43707;BME280;61348;53.392;-6.248;2024-03-02T01:42:43;98491.75;;;2.16;100.00
43707;BME280;61348;53.392;-6.248;2024-03-02T01:45:11;98487.75;;;2.13;100.00
43707;BME280;61348;53.392;-6.248;2024-03-02T01:47:38;98486.16;;;2.12;100.00
43707;BME280;61348;53.392;-6.248;2024-03-02T01:50:07;98492.78;;;2.11;100.00
43707;BME280;61348;53.392;-6.248;2024-03-02T01:52:34;98486.84;;;2.09;100.00
43707;BME280;61348;53.392;-6.248;2024-03-02T01:55:02;98486.41;;;2.07;100.00
43707;BME280;61348;53.392;-6.248;2024-03-02T01:57:29;98489.06;;;2.04;100.00
43707;BME280;61348;53.392;-6.248;2024-03-02T01:59:58;98484.34;;;2.04;100.00
43707;BME280;61348;53.392;-6.248;2024-03-02T02:02:25;98490.19;;;2.03;100.00
43707;BME280;61348;53.392;-6.248;2024-03-02T02:04:52;98487.44;;;2.03;100.00
43707;BME280;61348;53.392;-6.248;2024-03-02T02:07:20;98496.75;;;2.02;100.00
43707;BME280;61348;53.392;-6.248;2024-03-02T02:09:47;98491.97;;;1.99;100.00
43707;BME280;61348;53.392;-6.248;2024-03-02T02:12:15;98497.81;;;1.97;100.00
43707;BME280;61348;53.392;-6.248;2024-03-02T02:14:49;98498.16;;;1.96;100.00
43707;BME280;61348;53.392;-6.248;2024-03-02T02:17:17;98504.28;;;1.93;100.00
43707;BME280;61348;53.392;-6.248;2024-03-02T02:19:44;98498.84;;;1.93;100.00
43707;BME280;61348;53.392;-6.248;2024-03-02T02:22:12;98501.13;;;1.91;100.00
43707;BME280;61348;53.392;-6.248;2024-03-02T02:24:42;98492.47;;;1.89;100.00
43707;BME280;61348;53.392;-6.248;2024-03-02T02:27:10;98494.38;;;1.88;100.00
43707;BME280;61348;53.392;-6.248;2024-03-02T02:29:37;98497.03;;;1.84;100.00
43707;BME280;61348;53.392;-6.248;2024-03-02T02:32:05;98511.34;;;1.81;100.00
43707;BME280;61348;53.392;-6.248;2024-03-02T02:34:33;98512.81;;;1.79;100.00
43707;BME280;61348;53.392;-6.248;2024-03-02T02:37:01;98513.16;;;1.77;100.00
43707;BME280;61348;53.392;-6.248;2024-03-02T02:39:28;98509.97;;;1.75;100.00
43707;BME280;61348;53.392;-6.248;2024-03-02T02:41:56;98502.94;;;1.74;100.00
43707;BME280;61348;53.392;-6.248;2024-03-02T02:44:23;98502.47;;;1.72;100.00
43707;BME280;61348;53.392;-6.248;2024-03-02T02:46:52;98502.81;;;1.71;100.00
43707;BME280;61348;53.392;-6.248;2024-03-02T02:49:19;98505.91;;;1.69;100.00
43707;BME280;61348;53.392;-6.248;2024-03-02T02:51:46;98509.41;;;1.70;100.00
43707;BME280;61348;53.392;-6.248;2024-03-02T02:54:14;98502.69;;;1.67;100.00
43707;BME280;61348;53.392;-6.248;2024-03-02T02:56:41;98504.97;;;1.65;100.00
43707;BME280;61348;53.392;-6.248;2024-03-02T02:59:08;98504.84;;;1.62;100.00
43707;BME280;61348;53.392;-6.248;2024-03-02T03:01:36;98507.94;;;1.60;100.00
43707;BME280;61348;53.392;-6.248;2024-03-02T03:04:03;98507.94;;;1.60;100.00
43707;BME280;61348;53.392;-6.248;2024-03-02T03:06:30;98498.16;;;1.59;100.00
43707;BME280;61348;53.392;-6.248;2024-03-02T03:08:58;98500.09;;;1.59;100.00
43707;BME280;61348;53.392;-6.248;2024-03-02T03:11:26;98493.84;;;1.58;100.00
43707;BME280;61348;53.392;-6.248;2024-03-02T03:13:53;98499.31;;;1.58;100.00
43707;BME280;61348;53.392;-6.248;2024-03-02T03:16:21;98493.06;;;1.58;100.00
43707;BME280;61348;53.392;-6.248;2024-03-02T03:18:48;98500.44;;;1.57;100.00
43707;BME280;61348;53.392;-6.248;2024-03-02T03:21:19;98498.81;;;1.56;100.00
43707;BME280;61348;53.392;-6.248;2024-03-02T03:23:46;98492.13;;;1.54;100.00
43707;BME280;61348;53.392;-6.248;2024-03-02T03:26:13;98497.56;;;1.54;100.00
43707;BME280;61348;53.392;-6.248;2024-03-02T03:28:42;98496.47;;;1.55;100.00
43707;BME280;61348;53.392;-6.248;2024-03-02T03:31:11;98499.19;;;1.55;100.00
43707;BME280;61348;53.392;-6.248;2024-03-02T03:33:38;98498.81;;;1.56;100.00
43707;BME280;61348;53.392;-6.248;2024-03-02T03:36:05;98503.03;;;1.54;100.00
43707;BME280;61348;53.392;-6.248;2024-03-02T03:38:33;98499.19;;;1.55;100.00
43707;BME280;61348;53.392;-6.248;2024-03-02T03:41:00;98499.06;;;1.51;100.00
43707;BME280;61348;53.392;-6.248;2024-03-02T03:43:27;98497.50;;;1.50;100.00
43707;BME280;61348;53.392;-6.248;2024-03-02T03:45:55;98501.00;;;1.51;100.00
43707;BME280;61348;53.392;-6.248;2024-03-02T03:48:22;98494.31;;;1.48;100.00
43707;BME280;61348;53.392;-6.248;2024-03-02T03:50:49;98512.25;;;1.49;100.00
43707;BME280;61348;53.392;-6.248;2024-03-02T03:53:17;98506.47;;;1.51;100.00
43707;BME280;61348;53.392;-6.248;2024-03-02T03:55:44;98500.66;;;1.52;100.00
43707;BME280;61348;53.392;-6.248;2024-03-02T03:58:13;98510.44;;;1.53;100.00
43707;BME280;61348;53.392;-6.248;2024-03-02T04:00:41;98506.56;;;1.54;100.00
43707;BME280;61348;53.392;-6.248;2024-03-02T04:03:08;98512.00;;;1.54;100.00
43707;BME280;61348;53.392;-6.248;2024-03-02T04:05:36;98512.81;;;1.55;100.00
43707;BME280;61348;53.392;-6.248;2024-03-02T04:08:03;98519.75;;;1.52;100.00
43707;BME280;61348;53.392;-6.248;2024-03-02T04:10:31;98514.97;;;1.49;100.00
43707;BME280;61348;53.392;-6.248;2024-03-02T04:12:58;98525.44;;;1.47;100.00
43707;BME280;61348;53.392;-6.248;2024-03-02T04:15:25;98514.38;;;1.44;100.00
43707;BME280;61348;53.392;-6.248;2024-03-02T04:17:53;98522.13;;;1.42;100.00
43707;BME280;61348;53.392;-6.248;2024-03-02T04:20:20;98527.94;;;1.40;100.00
43707;BME280;61348;53.392;-6.248;2024-03-02T04:22:48;98517.34;;;1.39;100.00
43707;BME280;61348;53.392;-6.248;2024-03-02T04:25:15;98521.91;;;1.35;100.00
43707;BME280;61348;53.392;-6.248;2024-03-02T04:27:42;98520.28;;;1.34;100.00
43707;BME280;61348;53.392;-6.248;2024-03-02T04:30:10;98517.13;;;1.32;100.00
43707;BME280;61348;53.392;-6.248;2024-03-02T04:32:37;98517.44;;;1.30;100.00
43707;BME280;61348;53.392;-6.248;2024-03-02T04:35:06;98511.53;;;1.28;100.00
43707;BME280;61348;53.392;-6.248;2024-03-02T04:37:37;98512.34;;;1.29;100.00
43707;BME280;61348;53.392;-6.248;2024-03-02T04:40:05;98512.78;;;1.31;100.00
43707;BME280;61348;53.392;-6.248;2024-03-02T04:42:35;98501.09;;;1.30;100.00
43707;BME280;61348;53.392;-6.248;2024-03-02T04:45:03;98513.94;;;1.30;100.00
43707;BME280;61348;53.392;-6.248;2024-03-02T04:47:30;98515.50;;;1.31;100.00
43707;BME280;61348;53.392;-6.248;2024-03-02T04:49:58;98517.13;;;1.32;100.00
43707;BME280;61348;53.392;-6.248;2024-03-02T04:52:25;98524.13;;;1.33;100.00
43707;BME280;61348;53.392;-6.248;2024-03-02T04:54:52;98527.66;;;1.33;100.00
43707;BME280;61348;53.392;-6.248;2024-03-02T04:57:38;98527.66;;;1.33;100.00
43707;BME280;61348;53.392;-6.248;2024-03-02T05:00:06;98531.19;;;1.34;100.00
43707;BME280;61348;53.392;-6.248;2024-03-02T05:02:36;98527.66;;;1.33;100.00
43707;BME280;61348;53.392;-6.248;2024-03-02T05:05:03;98525.75;;;1.34;100.00
43707;BME280;61348;53.392;-6.248;2024-03-02T05:07:31;98530.41;;;1.33;100.00
43707;BME280;61348;53.392;-6.248;2024-03-02T05:09:58;98520.66;;;1.32;100.00
43707;BME280;61348;53.392;-6.248;2024-03-02T05:12:26;98524.13;;;1.33;100.00
43707;BME280;61348;53.392;-6.248;2024-03-02T05:15:13;98522.56;;;1.32;100.00
43707;BME280;61348;53.392;-6.248;2024-03-02T05:17:42;98529.59;;;1.33;100.00
43707;BME280;61348;53.392;-6.248;2024-03-02T05:20:12;98528.03;;;1.32;100.00
43707;BME280;61348;53.392;-6.248;2024-03-02T05:22:40;98521.75;;;1.31;100.00
43707;BME280;61348;53.392;-6.248;2024-03-02T05:25:07;98530.63;;;1.28;100.00
43707;BME280;61348;53.392;-6.248;2024-03-02T05:27:36;98523.59;;;1.27;100.00
43707;BME280;61348;53.392;-6.248;2024-03-02T05:30:04;98517.66;;;1.25;100.00
43707;BME280;61348;53.392;-6.248;2024-03-02T05:32:33;98516.09;;;1.24;100.00
43707;BME280;61348;53.392;-6.248;2024-03-02T05:35:01;98530.03;;;1.22;100.00
43707;BME280;61348;53.392;-6.248;2024-03-02T05:37:30;98526.19;;;1.23;100.00
43707;BME280;61348;53.392;-6.248;2024-03-02T05:39:57;98532.88;;;1.26;100.00
43707;BME280;61348;53.392;-6.248;2024-03-02T05:42:26;98528.56;;;1.25;100.00
43707;BME280;61348;53.392;-6.248;2024-03-02T05:44:55;98535.47;;;1.22;100.00
43707;BME280;61348;53.392;-6.248;2024-03-02T05:47:22;98537.09;;;1.23;100.00
43707;BME280;61348;53.392;-6.248;2024-03-02T05:49:49;98527.31;;;1.22;100.00
43707;BME280;61348;53.392;-6.248;2024-03-02T05:52:17;98527.31;;;1.22;100.00
43707;BME280;61348;53.392;-6.248;2024-03-02T05:54:44;98534.69;;;1.22;100.00
43707;BME280;61348;53.392;-6.248;2024-03-02T05:57:11;98525.38;;;1.23;100.00
43707;BME280;61348;53.392;-6.248;2024-03-02T06:00:01;98528.56;;;1.25;100.00
43707;BME280;61348;53.392;-6.248;2024-03-02T06:02:28;98528.56;;;1.25;100.00
43707;BME280;61348;53.392;-6.248;2024-03-02T06:04:56;98536.75;;;1.25;100.00
43707;BME280;61348;53.392;-6.248;2024-03-02T06:07:23;98534.00;;;1.25;100.00
43707;BME280;61348;53.392;-6.248;2024-03-02T06:09:50;98541.88;;;1.27;100.00
43707;BME280;61348;53.392;-6.248;2024-03-02T06:12:19;98534.00;;;1.25;100.00
43707;BME280;61348;53.392;-6.248;2024-03-02T06:14:47;98541.06;;;1.26;100.00
43707;BME280;61348;53.392;-6.248;2024-03-02T06:17:15;98536.28;;;1.23;100.00
43707;BME280;61348;53.392;-6.248;2024-03-02T06:19:42;98548.78;;;1.24;100.00
43707;BME280;61348;53.392;-6.248;2024-03-02T06:22:09;98540.63;;;1.24;100.00
43707;BME280;61348;53.392;-6.248;2024-03-02T06:24:37;98548.00;;;1.23;100.00
43707;BME280;61348;53.392;-6.248;2024-03-02T06:27:06;98550.72;;;1.23;100.00
43707;BME280;61348;53.392;-6.248;2024-03-02T06:29:33;98555.38;;;1.23;100.00
43707;BME280;61348;53.392;-6.248;2024-03-02T06:32:01;98558.09;;;1.23;100.00
43707;BME280;61348;53.392;-6.248;2024-03-02T06:34:28;98553.75;;;1.22;100.00
43707;BME280;61348;53.392;-6.248;2024-03-02T06:36:55;98559.69;;;1.24;100.00
43707;BME280;61348;53.392;-6.248;2024-03-02T06:39:23;98556.16;;;1.23;100.00
43707;BME280;61348;53.392;-6.248;2024-03-02T06:41:50;98560.47;;;1.24;100.00
43707;BME280;61348;53.392;-6.248;2024-03-02T06:44:18;98558.88;;;1.23;100.00
43707;BME280;61348;53.392;-6.248;2024-03-02T06:46:45;98569.44;;;1.25;100.00
43707;BME280;61348;53.392;-6.248;2024-03-02T06:49:12;98566.25;;;1.23;100.00
43707;BME280;61348;53.392;-6.248;2024-03-02T06:51:39;98567.88;;;1.24;100.00
43707;BME280;61348;53.392;-6.248;2024-03-02T06:54:09;98564.34;;;1.23;100.00
43707;BME280;61348;53.392;-6.248;2024-03-02T06:56:36;98563.09;;;1.21;100.00
43707;BME280;61348;53.392;-6.248;2024-03-02T06:59:05;98577.38;;;1.18;100.00
43707;BME280;61348;53.392;-6.248;2024-03-02T07:01:33;98573.72;;;1.14;100.00
43707;BME280;61348;53.392;-6.248;2024-03-02T07:04:00;98568.63;;;1.12;100.00
43707;BME280;61348;53.392;-6.248;2024-03-02T07:06:28;98571.22;;;1.09;100.00
43707;BME280;61348;53.392;-6.248;2024-03-02T07:08:55;98575.09;;;1.08;100.00
43707;BME280;61348;53.392;-6.248;2024-03-02T07:11:22;98565.31;;;1.07;100.00
43707;BME280;61348;53.392;-6.248;2024-03-02T07:13:50;98577.34;;;1.06;100.00
43707;BME280;61348;53.392;-6.248;2024-03-02T07:16:17;98575.41;;;1.06;100.00
43707;BME280;61348;53.392;-6.248;2024-03-02T07:19:00;98572.69;;;1.06;100.00
43707;BME280;61348;53.392;-6.248;2024-03-02T07:21:29;98566.09;;;1.07;100.00
43707;BME280;61348;53.392;-6.248;2024-03-02T07:23:59;98570.75;;;1.07;100.00
43707;BME280;61348;53.392;-6.248;2024-03-02T07:26:26;98574.28;;;1.07;100.00
43707;BME280;61348;53.392;-6.248;2024-03-02T07:28:57;98577.81;;;1.08;100.00
43707;BME280;61348;53.392;-6.248;2024-03-02T07:31:24;98577.81;;;1.08;100.00
43707;BME280;61348;53.392;-6.248;2024-03-02T07:33:51;98579.38;;;1.09;100.00
43707;BME280;61348;53.392;-6.248;2024-03-02T07:36:19;98588.34;;;1.09;100.00
43707;BME280;61348;53.392;-6.248;2024-03-02T07:38:47;98577.16;;;1.11;100.00
43707;BME280;61348;53.392;-6.248;2024-03-02T07:41:17;98585.78;;;1.13;100.00
43707;BME280;61348;53.392;-6.248;2024-03-02T07:43:44;98587.81;;;1.16;100.00
43707;BME280;61348;53.392;-6.248;2024-03-02T07:46:13;98591.47;;;1.20;100.00
43707;BME280;61348;53.392;-6.248;2024-03-02T07:48:42;98585.34;;;1.23;100.00
43707;BME280;61348;53.392;-6.248;2024-03-02T07:51:10;98591.72;;;1.27;100.00
43707;BME280;61348;53.392;-6.248;2024-03-02T07:53:37;98596.47;;;1.30;100.00
43707;BME280;61348;53.392;-6.248;2024-03-02T07:56:05;98598.53;;;1.33;100.00
43707;BME280;61348;53.392;-6.248;2024-03-02T07:58:33;98594.34;;;1.36;100.00
43707;BME280;61348;53.392;-6.248;2024-03-02T08:01:02;98590.16;;;1.38;100.00
43707;BME280;61348;53.392;-6.248;2024-03-02T08:03:30;98596.06;;;1.40;100.00
43707;BME280;61348;53.392;-6.248;2024-03-02T08:05:59;98600.06;;;1.43;100.00
43707;BME280;61348;53.392;-6.248;2024-03-02T08:08:27;98598.59;;;1.45;100.00
43707;BME280;61348;53.392;-6.248;2024-03-02T08:10:55;98603.38;;;1.48;100.00
43707;BME280;61348;53.392;-6.248;2024-03-02T08:13:24;98610.84;;;1.51;100.00
43707;BME280;61348;53.392;-6.248;2024-03-02T08:15:52;98605.19;;;1.56;100.00
43707;BME280;61348;53.392;-6.248;2024-03-02T08:18:19;98607.72;;;1.61;100.00
43707;BME280;61348;53.392;-6.248;2024-03-02T08:20:47;98608.25;;;1.67;100.00
43707;BME280;61348;53.392;-6.248;2024-03-02T08:23:14;98604.53;;;1.71;100.00
43707;BME280;61348;53.392;-6.248;2024-03-02T08:25:42;98602.72;;;1.75;100.00
43707;BME280;61348;53.392;-6.248;2024-03-02T08:28:10;98600.56;;;1.81;100.00
43707;BME280;61348;53.392;-6.248;2024-03-02T08:30:38;98613.19;;;1.85;100.00
43707;BME280;61348;53.392;-6.248;2024-03-02T08:33:05;98611.81;;;1.92;100.00
43707;BME280;61348;53.392;-6.248;2024-03-02T08:35:33;98606.16;;;1.97;100.00
43707;BME280;61348;53.392;-6.248;2024-03-02T08:38:03;98609.13;;;2.04;100.00
43707;BME280;61348;53.392;-6.248;2024-03-02T08:40:31;98603.44;;;2.09;100.00
43707;BME280;61348;53.392;-6.248;2024-03-02T08:42:59;98607.06;;;2.13;100.00
43707;BME280;61348;53.392;-6.248;2024-03-02T08:45:26;98612.28;;;2.18;100.00
43707;BME280;61348;53.392;-6.248;2024-03-02T08:47:54;98612.84;;;2.23;100.00
43707;BME280;61348;53.392;-6.248;2024-03-02T08:50:21;98605.13;;;2.25;100.00
43707;BME280;61348;53.392;-6.248;2024-03-02T08:52:48;98606.16;;;2.33;100.00
43707;BME280;61348;53.392;-6.248;2024-03-02T08:55:16;98606.69;;;2.38;100.00
43707;BME280;61348;53.392;-6.248;2024-03-02T08:57:45;98613.53;;;2.44;100.00
43707;BME280;61348;53.392;-6.248;2024-03-02T09:00:12;98623.75;;;2.47;100.00
43707;BME280;61348;53.392;-6.248;2024-03-02T09:02:40;98613.41;;;2.53;100.00
43707;BME280;61348;53.392;-6.248;2024-03-02T09:05:07;98621.72;;;2.57;100.00
43707;BME280;61348;53.392;-6.248;2024-03-02T09:07:35;98629.56;;;2.58;100.00
43707;BME280;61348;53.392;-6.248;2024-03-02T09:10:03;98617.94;;;2.61;100.00
43707;BME280;61348;53.392;-6.248;2024-03-02T09:12:31;98621.91;;;2.64;100.00
43707;BME280;61348;53.392;-6.248;2024-03-02T09:15:02;98619.63;;;2.66;100.00
43707;BME280;61348;53.392;-6.248;2024-03-02T09:17:33;98618.94;;;2.69;100.00
43707;BME280;61348;53.392;-6.248;2024-03-02T09:20:05;98618.59;;;2.70;100.00
43707;BME280;61348;53.392;-6.248;2024-03-02T09:22:32;98621.78;;;2.72;100.00
43707;BME280;61348;53.392;-6.248;2024-03-02T09:25:00;98617.47;;;2.71;100.00
43707;BME280;61348;53.392;-6.248;2024-03-02T09:27:30;98618.38;;;2.75;100.00
43707;BME280;61348;53.392;-6.248;2024-03-02T09:29:57;98627.81;;;2.78;100.00
43707;BME280;61348;53.392;-6.248;2024-03-02T09:32:24;98624.03;;;2.82;100.00
43707;BME280;61348;53.392;-6.248;2024-03-02T09:34:52;98620.63;;;2.85;100.00
43707;BME280;61348;53.392;-6.248;2024-03-02T09:37:20;98622.19;;;2.86;100.00
43707;BME280;61348;53.392;-6.248;2024-03-02T09:39:47;98617.19;;;2.88;100.00
43707;BME280;61348;53.392;-6.248;2024-03-02T09:42:15;98622.31;;;2.90;100.00
43707;BME280;61348;53.392;-6.248;2024-03-02T09:44:42;98627.41;;;2.91;100.00
43707;BME280;61348;53.392;-6.248;2024-03-02T09:47:10;98626.72;;;2.94;100.00
43707;BME280;61348;53.392;-6.248;2024-03-02T09:49:37;98616.59;;;2.95;100.00
43707;BME280;61348;53.392;-6.248;2024-03-02T09:52:07;98624.47;;;2.96;100.00
43707;BME280;61348;53.392;-6.248;2024-03-02T09:54:34;98618.28;;;2.99;100.00
43707;BME280;61348;53.392;-6.248;2024-03-02T09:57:04;98618.28;;;2.99;100.00
43707;BME280;61348;53.392;-6.248;2024-03-02T09:59:32;98622.63;;;3.00;100.00
43707;BME280;61348;53.392;-6.248;2024-03-02T10:02:02;98608.25;;;3.03;100.00
43707;BME280;61348;53.392;-6.248;2024-03-02T10:04:30;98612.69;;;3.08;100.00
43707;BME280;61348;53.392;-6.248;2024-03-02T10:09:35;98610.25;;;3.19;100.00
43707;BME280;61348;53.392;-6.248;2024-03-02T10:12:10;98607.69;;;3.26;100.00
43707;BME280;61348;53.392;-6.248;2024-03-02T10:14:39;98603.78;;;3.39;100.00
43707;BME280;61348;53.392;-6.248;2024-03-02T10:17:08;98607.41;;;3.43;100.00
43707;BME280;61348;53.392;-6.248;2024-03-02T10:19:37;98606.34;;;3.47;100.00
43707;BME280;61348;53.392;-6.248;2024-03-02T10:22:07;98604.84;;;3.50;100.00
43707;BME280;61348;53.392;-6.248;2024-03-02T10:24:40;98609.34;;;3.58;100.00
43707;BME280;61348;53.392;-6.248;2024-03-02T10:27:22;98614.78;;;3.70;100.00
43707;BME280;61348;53.392;-6.248;2024-03-02T10:29:50;98611.78;;;3.75;100.00
43707;BME280;61348;53.392;-6.248;2024-03-02T10:32:17;98610.09;;;3.86;100.00
43707;BME280;61348;53.392;-6.248;2024-03-02T10:34:46;98600.94;;;3.94;100.00
43707;BME280;61348;53.392;-6.248;2024-03-02T10:37:15;98621.84;;;4.02;100.00
43707;BME280;61348;53.392;-6.248;2024-03-02T10:39:42;98609.31;;;4.01;100.00
43707;BME280;61348;53.392;-6.248;2024-03-02T10:42:11;98607.81;;;4.04;100.00
43707;BME280;61348;53.392;-6.248;2024-03-02T10:44:39;98607.97;;;4.11;100.00
43707;BME280;61348;53.392;-6.248;2024-03-02T10:47:08;98608.94;;;4.18;100.00
43707;BME280;61348;53.392;-6.248;2024-03-02T10:49:38;98599.19;;;4.21;100.00
43707;BME280;61348;53.392;-6.248;2024-03-02T10:52:05;98589.84;;;4.22;100.00
43707;BME280;61348;53.392;-6.248;2024-03-02T10:54:33;98600.00;;;4.21;100.00
43707;BME280;61348;53.392;-6.248;2024-03-02T10:57:04;98610.25;;;4.24;100.00
43707;BME280;61348;53.392;-6.248;2024-03-02T10:59:40;98599.41;;;4.28;100.00
43707;BME280;61348;53.392;-6.248;2024-03-02T11:02:15;98601.75;;;4.29;100.00
43707;BME280;61348;53.392;-6.248;2024-03-02T11:04:45;98604.50;;;4.29;100.00
43707;BME280;61348;53.392;-6.248;2024-03-02T11:07:18;98607.69;;;4.31;100.00
43707;BME280;61348;53.392;-6.248;2024-03-02T11:09:54;98613.25;;;4.35;100.00
43707;BME280;61348;53.392;-6.248;2024-03-02T11:12:53;98607.84;;;4.39;100.00
43707;BME280;61348;53.392;-6.248;2024-03-02T11:15:24;98608.00;;;4.46;100.00
43707;BME280;61348;53.392;-6.248;2024-03-02T11:17:54;98615.94;;;4.51;100.00
43707;BME280;61348;53.392;-6.248;2024-03-02T11:20:22;98626.63;;;4.56;100.00
43707;BME280;61348;53.392;-6.248;2024-03-02T11:22:50;98617.66;;;4.55;100.00
43707;BME280;61348;53.392;-6.248;2024-03-02T11:25:26;98628.94;;;4.54;100.00
43707;BME280;61348;53.392;-6.248;2024-03-02T11:35:42;98609.00;;;4.72;100.00
43707;BME280;61348;53.392;-6.248;2024-03-02T11:38:10;98616.31;;;4.84;100.00
43707;BME280;61348;53.392;-6.248;2024-03-02T11:40:40;98614.88;;;4.90;100.00
43707;BME280;61348;53.392;-6.248;2024-03-02T11:43:08;98609.75;;;4.88;100.00
43707;BME280;61348;53.392;-6.248;2024-03-02T11:45:36;98610.13;;;4.87;100.00
43707;BME280;61348;53.392;-6.248;2024-03-02T11:48:08;98604.91;;;4.82;100.00
43707;BME280;61348;53.392;-6.248;2024-03-02T11:50:42;98610.47;;;4.85;100.00
43707;BME280;61348;53.392;-6.248;2024-03-02T11:53:11;98605.50;;;4.91;100.00
43707;BME280;61348;53.392;-6.248;2024-03-02T11:55:40;98601.31;;;4.97;100.00
43707;BME280;61348;53.392;-6.248;2024-03-02T11:58:08;98597.06;;;5.00;100.00
43707;BME280;61348;53.392;-6.248;2024-03-02T12:00:36;98597.88;;;5.00;100.00
43707;BME280;61348;53.392;-6.248;2024-03-02T12:03:08;98605.34;;;5.03;100.00
43707;BME280;61348;53.392;-6.248;2024-03-02T12:05:36;98597.72;;;5.12;100.00
43707;BME280;61348;53.392;-6.248;2024-03-02T12:08:05;98602.47;;;5.15;100.00
43707;BME280;61348;53.392;-6.248;2024-03-02T12:10:36;98610.13;;;5.25;100.00
43707;BME280;61348;53.392;-6.248;2024-03-02T12:13:06;98608.25;;;5.29;100.00
43707;BME280;61348;53.392;-6.248;2024-03-02T12:15:36;98607.50;;;5.32;100.00
43707;BME280;61348;53.392;-6.248;2024-03-02T12:18:04;98614.50;;;5.30;100.00
43707;BME280;61348;53.392;-6.248;2024-03-02T12:20:33;98601.69;;;5.34;100.00
43707;BME280;61348;53.392;-6.248;2024-03-02T12:23:02;98603.03;;;5.43;100.00
43707;BME280;61348;53.392;-6.248;2024-03-02T12:25:31;98596.94;;;5.53;100.00
43707;BME280;61348;53.392;-6.248;2024-03-02T12:28:00;98611.97;;;5.60;100.00
43707;BME280;61348;53.392;-6.248;2024-03-02T12:30:35;98604.22;;;5.65;100.00
43707;BME280;61348;53.392;-6.248;2024-03-02T12:33:03;98602.03;;;5.74;100.00
43707;BME280;61348;53.392;-6.248;2024-03-02T12:35:30;98608.03;;;5.80;100.00
43707;BME280;61348;53.392;-6.248;2024-03-02T12:37:58;98598.50;;;5.74;100.00
43707;BME280;61348;53.392;-6.248;2024-03-02T12:40:26;98597.28;;;5.71;100.00
43707;BME280;61348;53.392;-6.248;2024-03-02T12:42:54;98604.00;;;5.74;100.00
43707;BME280;61348;53.392;-6.248;2024-03-02T12:45:21;98595.75;;;5.74;100.00
43707;BME280;61348;53.392;-6.248;2024-03-02T12:47:52;98597.31;;;5.75;100.00
43707;BME280;61348;53.392;-6.248;2024-03-02T12:50:20;98590.63;;;5.72;100.00
43707;BME280;61348;53.392;-6.248;2024-03-02T12:52:54;98585.91;;;5.73;100.00
43707;BME280;61348;53.392;-6.248;2024-03-02T12:55:23;98581.41;;;5.84;100.00
43707;BME280;61348;53.392;-6.248;2024-03-02T12:57:51;98573.75;;;5.93;100.00
43707;BME280;61348;53.392;-6.248;2024-03-02T13:00:20;98570.72;;;5.98;100.00
43707;BME280;61348;53.392;-6.248;2024-03-02T13:02:49;98582.53;;;6.02;100.00
43707;BME280;61348;53.392;-6.248;2024-03-02T13:05:19;98576.69;;;6.03;100.00
43707;BME280;61348;53.392;-6.248;2024-03-02T13:07:48;98580.50;;;5.99;100.00
43707;BME280;61348;53.392;-6.248;2024-03-02T13:10:16;98578.22;;;6.01;100.00
43707;BME280;61348;53.392;-6.248;2024-03-02T13:12:45;98582.03;;;6.19;100.00